createdAt,value
2022-08-25T00:01:47.589Z,101877.59
2022-08-25T00:04:15.051Z,101874.34
2022-08-25T00:06:43.141Z,101873.75
2022-08-25T00:09:11.127Z,101877.91
2022-08-25T00:11:39.504Z,101874.81
2022-08-25T00:14:12.915Z,101883.28
2022-08-25T00:16:39.596Z,101869.94
2022-08-25T00:19:09.454Z,101871.13
2022-08-25T00:21:36.116Z,101874.59
2022-08-25T00:24:03.001Z,101877.91
2022-08-25T00:26:29.928Z,101869.59
2022-08-25T00:29:01.992Z,101878.50
2022-08-25T00:31:38.669Z,101872.63
2022-08-25T00:34:08.772Z,101870.81
2022-08-25T00:36:35.554Z,101872.59
2022-08-25T00:39:02.011Z,101876.56
2022-08-25T00:41:28.827Z,101876.72
2022-08-25T00:44:00.034Z,101883.78
2022-08-25T00:46:31.466Z,101884.69
2022-08-25T00:49:01.468Z,101885.00
2022-08-25T00:51:33.607Z,101894.28
2022-08-25T00:54:00.750Z,101890.88
2022-08-25T00:56:27.692Z,101887.56
2022-08-25T00:58:54.189Z,101886.72
2022-08-25T01:01:20.673Z,101886.66
2022-08-25T01:03:47.291Z,101889.09
2022-08-25T01:06:14.190Z,101891.28
2022-08-25T01:08:40.666Z,101894.50
2022-08-25T01:11:10.014Z,101887.09
2022-08-25T01:13:47.579Z,101894.81
2022-08-25T01:16:15.511Z,101880.94
2022-08-25T01:18:53.269Z,101887.59
2022-08-25T01:21:21.814Z,101891.75
2022-08-25T01:23:49.643Z,101894.09
2022-08-25T01:26:26.145Z,101893.25
2022-08-25T01:29:18.043Z,101898.81
2022-08-25T01:31:45.124Z,101900.81
2022-08-25T01:34:15.573Z,101897.03
2022-08-25T01:36:43.785Z,101898.91
2022-08-25T01:39:11.079Z,101890.56
2022-08-25T01:41:51.302Z,101894.88
2022-08-25T01:44:18.487Z,101896.47
2022-08-25T01:46:45.005Z,101886.53
2022-08-25T01:49:11.509Z,101887.94
2022-08-25T01:51:42.788Z,101893.31
2022-08-25T01:54:09.310Z,101882.81
2022-08-25T01:56:35.841Z,101887.47
2022-08-25T01:59:02.262Z,101891.38
2022-08-25T02:01:28.749Z,101892.91
2022-08-25T02:03:56.586Z,101891.53
2022-08-25T02:06:29.967Z,101892.53
2022-08-25T02:08:59.270Z,101887.81
2022-08-25T02:11:25.765Z,101895.22
2022-08-25T02:13:54.991Z,101895.44
2022-08-25T02:16:25.362Z,101894.34
2022-08-25T02:18:53.000Z,101886.69
2022-08-25T02:21:19.448Z,101890.97
2022-08-25T02:23:45.908Z,101883.25
2022-08-25T02:26:16.616Z,101886.13
2022-08-25T02:28:44.676Z,101891.78
2022-08-25T02:31:11.281Z,101887.69
2022-08-25T02:33:37.873Z,101886.03
2022-08-25T02:36:05.061Z,101895.19
2022-08-25T02:38:31.950Z,101890.97
2022-08-25T02:40:59.155Z,101884.38
2022-08-25T02:43:26.280Z,101886.63
2022-08-25T02:45:53.321Z,101884.69
2022-08-25T02:48:19.921Z,101879.97
2022-08-25T02:50:48.081Z,101889.38
2022-08-25T02:53:14.523Z,101885.91
2022-08-25T02:55:40.941Z,101886.16
2022-08-25T02:58:09.055Z,101876.28
2022-08-25T03:00:35.509Z,101880.47
2022-08-25T03:03:02.780Z,101872.31
2022-08-25T03:05:29.210Z,101875.75
2022-08-25T03:07:56.186Z,101879.22
2022-08-25T03:10:24.298Z,101880.50
2022-08-25T03:12:50.736Z,101879.91
2022-08-25T03:15:18.103Z,101874.63
2022-08-25T03:17:46.019Z,101876.59
2022-08-25T03:20:12.900Z,101875.38
2022-08-25T03:22:39.359Z,101869.06
2022-08-25T03:25:25.023Z,101873.00
2022-08-25T03:27:52.013Z,101880.25
2022-08-25T03:30:19.278Z,101874.56
2022-08-25T03:32:45.795Z,101871.84
2022-08-25T03:35:12.644Z,101877.09
2022-08-25T03:37:39.481Z,101853.22
2022-08-25T03:40:09.483Z,101871.31
2022-08-25T03:42:45.833Z,101873.56
2022-08-25T03:45:13.782Z,101865.69
2022-08-25T03:47:40.897Z,101872.16
2022-08-25T03:50:09.899Z,101869.25
2022-08-25T03:52:42.253Z,101857.84
2022-08-25T03:55:10.932Z,101856.53
2022-08-25T03:57:38.176Z,101855.97
2022-08-25T04:00:08.052Z,101859.44
2022-08-25T04:02:34.545Z,101854.84
2022-08-25T04:05:01.641Z,101861.88
2022-08-25T04:07:28.104Z,101860.84
2022-08-25T04:09:55.935Z,101858.31
2022-08-25T04:12:22.717Z,101858.41
2022-08-25T04:14:49.283Z,101859.81
2022-08-25T04:17:16.064Z,101861.22
2022-08-25T04:19:42.527Z,101850.91
2022-08-25T04:22:08.969Z,101859.53
2022-08-25T04:24:35.369Z,101859.16
2022-08-25T04:27:01.805Z,101855.72
2022-08-25T04:29:28.206Z,101850.13
2022-08-25T04:31:55.187Z,101845.09
2022-08-25T04:34:30.351Z,101847.16
2022-08-25T04:36:59.471Z,101839.97
2022-08-25T04:39:25.929Z,101841.38
2022-08-25T04:41:52.431Z,101846.06
2022-08-25T04:44:19.078Z,101837.28
2022-08-25T04:46:45.570Z,101834.56
2022-08-25T04:49:12.222Z,101844.34
2022-08-25T04:51:39.992Z,101843.84
2022-08-25T04:54:10.083Z,101842.91
2022-08-25T04:56:36.670Z,101839.44
2022-08-25T04:59:08.816Z,101841.00
2022-08-25T05:01:35.917Z,101844.94
2022-08-25T05:04:04.645Z,101846.44
2022-08-25T05:06:31.417Z,101850.47
2022-08-25T05:08:58.841Z,101856.09
2022-08-25T05:11:26.244Z,101854.69
2022-08-25T05:13:55.161Z,101858.19
2022-08-25T05:16:22.682Z,101854.13
2022-08-25T05:18:50.053Z,101856.28
2022-08-25T05:21:21.301Z,101860.22
2022-08-25T05:23:48.631Z,101849.91
2022-08-25T05:26:21.188Z,101843.38
2022-08-25T05:28:50.548Z,101848.38
2022-08-25T05:31:17.475Z,101838.53
2022-08-25T05:33:44.725Z,101844.72
2022-08-25T05:36:12.760Z,101831.78
2022-08-25T05:38:41.008Z,101832.78
2022-08-25T05:41:10.514Z,101833.47
2022-08-25T05:43:38.245Z,101832.81
2022-08-25T05:46:04.783Z,101832.44
2022-08-25T05:48:31.618Z,101832.28
2022-08-25T05:51:00.738Z,101829.00
2022-08-25T05:53:28.447Z,101829.47
2022-08-25T05:55:59.135Z,101825.31
2022-08-25T05:58:28.293Z,101828.88
2022-08-25T06:00:55.628Z,101828.44
2022-08-25T06:03:22.204Z,101830.66
2022-08-25T06:05:48.899Z,101827.50
2022-08-25T06:08:16.283Z,101835.25
2022-08-25T06:10:42.906Z,101833.88
2022-08-25T06:13:09.355Z,101830.06
2022-08-25T06:15:36.055Z,101831.69
2022-08-25T06:18:03.422Z,101827.47
2022-08-25T06:20:31.273Z,101832.47
2022-08-25T06:22:58.322Z,101837.19
2022-08-25T06:25:25.936Z,101839.00
2022-08-25T06:27:53.918Z,101837.19
2022-08-25T06:30:28.435Z,101833.25
2022-08-25T06:32:55.894Z,101840.53
2022-08-25T06:35:22.828Z,101843.91
2022-08-25T06:37:49.320Z,101840.31
2022-08-25T06:40:16.463Z,101835.00
2022-08-25T06:42:43.084Z,101831.94
2022-08-25T06:45:10.153Z,101832.19
2022-08-25T06:47:36.598Z,101842.44
2022-08-25T06:50:04.538Z,101844.97
2022-08-25T06:52:31.594Z,101841.81
2022-08-25T06:54:58.043Z,101838.38
2022-08-25T06:57:24.665Z,101837.19
2022-08-25T06:59:53.676Z,101840.28
2022-08-25T07:02:22.191Z,101840.31
2022-08-25T07:04:49.154Z,101837.34
2022-08-25T07:07:15.608Z,101835.88
2022-08-25T07:09:42.030Z,101830.41
2022-08-25T07:12:08.686Z,101828.47
2022-08-25T07:14:36.382Z,101826.22
2022-08-25T07:17:03.345Z,101832.19
2022-08-25T07:19:37.928Z,101834.63
2022-08-25T07:22:04.534Z,101827.06
2022-08-25T07:24:30.986Z,101831.97
2022-08-25T07:26:57.511Z,101835.13
2022-08-25T07:29:32.586Z,101838.53
2022-08-25T07:32:01.377Z,101835.31
2022-08-25T07:34:52.193Z,101840.72
2022-08-25T07:37:38.348Z,101841.25
2022-08-25T07:40:07.982Z,101841.34
2022-08-25T07:42:35.997Z,101849.88
2022-08-25T07:45:05.427Z,101839.34
2022-08-25T07:47:33.845Z,101847.19
2022-08-25T07:50:00.246Z,101842.06
2022-08-25T07:52:26.722Z,101847.53
2022-08-25T07:54:54.219Z,101840.06
2022-08-25T07:57:22.236Z,101842.78
2022-08-25T07:59:48.730Z,101841.72
2022-08-25T08:02:19.383Z,101836.16
2022-08-25T08:04:51.034Z,101837.19
2022-08-25T08:07:19.812Z,101841.09
2022-08-25T08:09:50.587Z,101839.75
2022-08-25T08:12:23.473Z,101837.25
2022-08-25T08:14:50.994Z,101835.31
2022-08-25T08:17:17.658Z,101834.00
2022-08-25T08:19:45.306Z,101828.94
2022-08-25T08:22:15.550Z,101826.81
2022-08-25T08:24:54.892Z,101823.75
2022-08-25T08:27:23.129Z,101819.16
2022-08-25T08:29:49.714Z,101829.09
2022-08-25T08:32:17.939Z,101825.34
2022-08-25T08:34:46.183Z,101825.69
2022-08-25T08:37:12.840Z,101827.19
2022-08-25T08:39:40.047Z,101825.25
2022-08-25T08:42:39.893Z,101825.03
2022-08-25T08:45:24.647Z,101826.16
2022-08-25T08:48:10.131Z,101826.00
2022-08-25T08:50:50.330Z,101814.06
2022-08-25T08:53:40.951Z,101799.81
2022-08-25T08:56:17.094Z,101809.47
2022-08-25T08:58:49.969Z,101809.94
2022-08-25T09:01:23.665Z,101809.78
2022-08-25T09:03:55.518Z,101806.72
2022-08-25T09:06:32.341Z,101811.78
2022-08-25T09:09:02.623Z,101817.94
2022-08-25T09:11:54.920Z,101813.75
2022-08-25T09:14:59.990Z,101812.44
2022-08-25T09:17:39.990Z,101804.97
2022-08-25T09:20:18.908Z,101808.88
2022-08-25T09:23:16.844Z,101800.41
2022-08-25T09:26:02.069Z,101804.63
2022-08-25T09:28:40.904Z,101790.97
2022-08-25T09:31:18.744Z,101787.25
2022-08-25T09:33:45.819Z,101786.94
2022-08-25T09:36:13.801Z,101779.66
2022-08-25T09:38:41.208Z,101785.50
2022-08-25T09:41:08.926Z,101782.66
2022-08-25T09:43:37.966Z,101782.31
2022-08-25T09:46:24.027Z,101778.06
2022-08-25T09:48:59.414Z,101778.97
2022-08-25T09:51:28.484Z,101780.34
2022-08-25T09:53:57.207Z,101776.88
2022-08-25T09:56:27.516Z,101762.72
2022-08-25T09:58:58.163Z,101754.00
2022-08-25T10:01:28.916Z,101749.88
2022-08-25T10:04:04.997Z,101744.47
2022-08-25T10:06:42.558Z,101751.00
2022-08-25T10:09:09.250Z,101750.09
2022-08-25T10:11:45.269Z,101741.13
2022-08-25T10:14:22.096Z,101735.25
2022-08-25T10:16:49.321Z,101733.81
2022-08-25T10:19:21.861Z,101729.22
2022-08-25T10:22:03.648Z,101726.38
2022-08-25T10:24:31.363Z,101710.59
2022-08-25T10:27:07.005Z,101713.34
2022-08-25T10:29:57.801Z,101706.97
2022-08-25T10:32:27.983Z,101709.34
2022-08-25T10:34:56.513Z,101712.25
2022-08-25T10:37:42.422Z,101698.13
2022-08-25T10:40:12.833Z,101698.25
2022-08-25T10:43:23.839Z,101686.50
2022-08-25T10:45:56.850Z,101690.75
2022-08-25T10:48:38.045Z,101687.25
2022-08-25T10:51:29.729Z,101674.34
2022-08-25T10:53:56.265Z,101680.13
2022-08-25T10:56:28.740Z,101668.97
2022-08-25T10:59:28.677Z,101670.47
2022-08-25T11:02:33.750Z,101664.88
2022-08-25T11:05:08.489Z,101663.28
2022-08-25T11:07:39.416Z,101666.44
2022-08-25T11:10:13.706Z,101667.38
2022-08-25T11:12:45.979Z,101653.16
2022-08-25T11:15:23.058Z,101665.03
2022-08-25T11:17:55.280Z,101670.47
2022-08-25T11:20:27.339Z,101659.16
2022-08-25T11:23:09.187Z,101653.53
2022-08-25T11:25:42.759Z,101642.88
2022-08-25T11:28:31.113Z,101642.69
2022-08-25T11:30:59.555Z,101644.47
2022-08-25T11:33:26.683Z,101636.19
2022-08-25T11:36:03.796Z,101632.84
2022-08-25T11:38:59.978Z,101634.22
2022-08-25T11:41:54.346Z,101632.63
2022-08-25T11:44:53.349Z,101638.38
2022-08-25T11:47:54.743Z,101624.03
2022-08-25T11:50:59.600Z,101631.94
2022-08-25T11:53:32.248Z,101626.50
2022-08-25T11:56:06.020Z,101631.22
2022-08-25T11:58:37.191Z,101613.28
2022-08-25T12:01:05.061Z,101614.19
2022-08-25T12:03:34.430Z,101606.59
2022-08-25T12:06:23.100Z,101600.66
2022-08-25T12:08:57.627Z,101598.41
2022-08-25T12:11:43.637Z,101599.63
2022-08-25T12:14:22.202Z,101602.41
2022-08-25T12:16:51.836Z,101598.34
2022-08-25T12:19:36.760Z,101596.47
2022-08-25T12:22:04.472Z,101591.69
2022-08-25T12:24:47.778Z,101580.50
2022-08-25T12:27:52.170Z,101589.63
2022-08-25T12:30:32.565Z,101580.84
2022-08-25T12:33:08.058Z,101576.47
2022-08-25T12:35:55.498Z,101571.31
2022-08-25T12:38:50.846Z,101573.59
2022-08-25T12:41:26.440Z,101564.81
2022-08-25T12:43:54.683Z,101577.38
2022-08-25T12:46:21.083Z,101569.94
2022-08-25T12:48:58.632Z,101575.44
2022-08-25T12:51:27.395Z,101567.34
2022-08-25T12:54:15.883Z,101576.56
2022-08-25T12:56:50.151Z,101575.13
2022-08-25T12:59:21.815Z,101565.50
2022-08-25T13:02:15.581Z,101566.75
2022-08-25T13:04:55.505Z,101568.59
2022-08-25T13:07:35.432Z,101555.22
2022-08-25T13:10:16.150Z,101557.88
2022-08-25T13:13:00.799Z,101558.28
2022-08-25T13:15:46.914Z,101553.81
2022-08-25T13:18:14.667Z,101554.41
2022-08-25T13:20:44.252Z,101544.91
2022-08-25T13:23:12.788Z,101544.75
2022-08-25T13:25:48.064Z,101537.00
2022-08-25T13:28:25.897Z,101535.69
2022-08-25T13:31:16.883Z,101530.28
2022-08-25T13:34:02.308Z,101530.59
2022-08-25T13:36:54.330Z,101525.56
2022-08-25T13:39:52.860Z,101528.06
2022-08-25T13:42:17.504Z,101518.31
2022-08-25T13:44:51.641Z,101520.66
2022-08-25T13:47:44.988Z,101514.31
2022-08-25T13:50:26.934Z,101508.84
2022-08-25T13:53:02.351Z,101515.91
2022-08-25T13:55:38.243Z,101512.75
2022-08-25T13:58:24.591Z,101512.75
2022-08-25T14:01:48.802Z,101509.03
2022-08-25T14:04:21.604Z,101500.03
2022-08-25T14:06:48.629Z,101500.84
2022-08-25T14:09:18.320Z,101502.53
2022-08-25T14:11:58.461Z,101502.88
2022-08-25T14:14:24.838Z,101498.88
2022-08-25T14:17:12.030Z,101492.56
2022-08-25T14:19:48.902Z,101494.59
2022-08-25T14:22:15.851Z,101494.28
2022-08-25T14:24:42.476Z,101481.22
2022-08-25T14:27:08.891Z,101489.19
2022-08-25T14:29:41.257Z,101491.16
2022-08-25T14:32:07.913Z,101483.41
2022-08-25T14:34:37.225Z,101480.72
2022-08-25T14:37:19.313Z,101481.44
2022-08-25T14:39:46.267Z,101482.91
2022-08-25T14:42:13.539Z,101471.97
2022-08-25T14:44:40.107Z,101473.91
2022-08-25T14:47:07.568Z,101471.50
2022-08-25T14:49:36.986Z,101470.31
2022-08-25T14:52:10.562Z,101466.66
2022-08-25T14:54:39.369Z,101462.44
2022-08-25T14:57:08.466Z,101453.00
2022-08-25T14:59:35.405Z,101451.88
2022-08-25T15:02:02.020Z,101445.13
2022-08-25T15:04:29.239Z,101454.28
2022-08-25T15:06:57.650Z,101452.00
2022-08-25T15:09:24.955Z,101452.81
2022-08-25T15:11:59.723Z,101443.63
2022-08-25T15:14:28.580Z,101442.44
2022-08-25T15:16:59.426Z,101440.97
2022-08-25T15:19:27.086Z,101434.34
2022-08-25T15:21:54.366Z,101431.81
2022-08-25T15:24:25.677Z,101431.44
2022-08-25T15:26:55.819Z,101428.88
2022-08-25T15:29:26.175Z,101418.72
2022-08-25T15:31:53.064Z,101426.78
2022-08-25T15:34:19.566Z,101426.41
2022-08-25T15:36:46.816Z,101421.38
2022-08-25T15:39:13.991Z,101417.28
2022-08-25T15:41:40.579Z,101408.13
2022-08-25T15:44:11.409Z,101413.59
2022-08-25T15:46:41.594Z,101414.75
2022-08-25T15:49:08.154Z,101415.22
2022-08-25T15:51:34.787Z,101406.38
2022-08-25T15:54:01.216Z,101412.66
2022-08-25T15:56:27.637Z,101413.91
2022-08-25T15:58:54.272Z,101408.97
2022-08-25T16:01:26.183Z,101405.16
2022-08-25T16:03:53.256Z,101413.31
2022-08-25T16:06:19.771Z,101406.34
2022-08-25T16:08:46.392Z,101408.50
2022-08-25T16:11:18.805Z,101397.88
2022-08-25T16:13:49.012Z,101397.34
2022-08-25T16:16:17.729Z,101391.06
2022-08-25T16:18:44.997Z,101390.63
2022-08-25T16:21:14.247Z,101389.25
2022-08-25T16:23:41.076Z,101393.41
2022-08-25T16:26:10.328Z,101393.97
2022-08-25T16:28:40.960Z,101396.16
2022-08-25T16:31:12.450Z,101384.69
2022-08-25T16:33:39.719Z,101384.50
2022-08-25T16:36:14.766Z,101388.75
2022-08-25T16:38:42.108Z,101392.03
2022-08-25T16:41:21.222Z,101390.53
2022-08-25T16:43:47.917Z,101379.44
2022-08-25T16:46:16.482Z,101379.75
2022-08-25T16:48:44.088Z,101382.78
2022-08-25T16:51:13.819Z,101379.47
2022-08-25T16:53:59.718Z,101371.31
2022-08-25T16:56:27.603Z,101383.91
2022-08-25T16:58:55.343Z,101380.25
2022-08-25T17:01:24.920Z,101375.16
2022-08-25T17:03:53.395Z,101376.25
2022-08-25T17:06:20.634Z,101378.47
2022-08-25T17:08:49.490Z,101375.72
2022-08-25T17:11:21.211Z,101372.53
2022-08-25T17:13:50.107Z,101376.22
2022-08-25T17:16:17.219Z,101376.75
2022-08-25T17:18:47.861Z,101374.22
2022-08-25T17:21:24.122Z,101371.50
2022-08-25T17:23:51.314Z,101375.56
2022-08-25T17:26:18.139Z,101378.69
2022-08-25T17:28:44.705Z,101376.34
2022-08-25T17:31:12.554Z,101379.50
2022-08-25T17:33:39.085Z,101372.47
2022-08-25T17:36:06.993Z,101363.63
2022-08-25T17:38:34.037Z,101371.59
2022-08-25T17:41:06.625Z,101375.44
2022-08-25T17:43:34.948Z,101376.94
2022-08-25T17:46:05.111Z,101377.31
2022-08-25T17:48:33.097Z,101381.56
2022-08-25T17:51:00.580Z,101384.09
2022-08-25T17:53:27.890Z,101376.56
2022-08-25T17:56:01.005Z,101367.69
2022-08-25T17:58:28.881Z,101374.44
2022-08-25T18:00:56.263Z,101374.34
2022-08-25T18:03:22.727Z,101373.06
2022-08-25T18:05:50.310Z,101376.00
2022-08-25T18:08:18.761Z,101371.72
2022-08-25T18:10:47.042Z,101370.78
2022-08-25T18:13:13.931Z,101370.66
2022-08-25T18:15:42.580Z,101374.50
2022-08-25T18:18:09.718Z,101369.88
2022-08-25T18:20:39.007Z,101379.16
2022-08-25T18:23:09.416Z,101374.88
2022-08-25T18:25:36.535Z,101380.22
2022-08-25T18:28:08.817Z,101378.16
2022-08-25T18:30:35.973Z,101381.19
2022-08-25T18:33:02.427Z,101378.09
2022-08-25T18:35:29.328Z,101381.75
2022-08-25T18:38:14.405Z,101379.81
2022-08-25T18:40:41.272Z,101382.81
2022-08-25T18:43:11.754Z,101395.53
2022-08-25T18:45:49.196Z,101389.72
2022-08-25T18:48:17.254Z,101393.75
2022-08-25T18:50:46.810Z,101391.75
2022-08-25T18:53:18.077Z,101390.72
2022-08-25T18:55:58.065Z,101391.56
2022-08-25T18:58:25.410Z,101393.38
2022-08-25T19:00:52.314Z,101394.13
2022-08-25T19:03:22.242Z,101381.25
2022-08-25T19:05:57.742Z,101395.59
2022-08-25T19:08:24.855Z,101385.03
2022-08-25T19:10:52.849Z,101382.06
2022-08-25T19:13:19.431Z,101391.13
2022-08-25T19:15:49.556Z,101389.25
2022-08-25T19:18:17.567Z,101391.78
2022-08-25T19:20:44.769Z,101393.03
2022-08-25T19:23:12.789Z,101398.50
2022-08-25T19:25:41.648Z,101396.06
2022-08-25T19:28:11.999Z,101396.38
2022-08-25T19:30:39.540Z,101400.88
2022-08-25T19:33:16.288Z,101400.56
2022-08-25T19:36:02.992Z,101405.44
2022-08-25T19:38:34.222Z,101395.09
2022-08-25T19:41:02.575Z,101397.47
2022-08-25T19:43:35.979Z,101399.03
2022-08-25T19:46:02.588Z,101396.06
2022-08-25T19:48:29.396Z,101397.56
2022-08-25T19:50:55.968Z,101393.72
2022-08-25T19:53:22.799Z,101396.13
2022-08-25T19:55:49.244Z,101402.72
2022-08-25T19:58:15.927Z,101395.22
2022-08-25T20:00:47.105Z,101395.69
2022-08-25T20:03:17.356Z,101396.31
2022-08-25T20:05:43.829Z,101394.75
2022-08-25T20:08:10.286Z,101392.59
2022-08-25T20:10:41.774Z,101396.34
2022-08-25T20:13:09.644Z,101395.53
2022-08-25T20:15:39.035Z,101409.69
2022-08-25T20:18:06.035Z,101406.63
2022-08-25T20:20:35.449Z,101406.75
2022-08-25T20:23:20.663Z,101402.75
2022-08-25T20:25:49.193Z,101408.50
2022-08-25T20:28:18.956Z,101400.84
2022-08-25T20:30:45.785Z,101402.88
2022-08-25T20:33:12.586Z,101408.34
2022-08-25T20:35:39.034Z,101409.72
2022-08-25T20:38:07.561Z,101409.72
2022-08-25T20:40:34.473Z,101400.63
2022-08-25T20:43:04.334Z,101403.13
2022-08-25T20:45:30.848Z,101399.72
2022-08-25T20:47:57.395Z,101407.78
2022-08-25T20:50:24.050Z,101408.31
2022-08-25T20:52:51.433Z,101405.66
2022-08-25T20:55:19.072Z,101399.75
2022-08-25T20:57:46.051Z,101394.53
2022-08-25T21:00:12.904Z,101399.78
2022-08-25T21:02:39.415Z,101397.19
2022-08-25T21:05:06.622Z,101399.69
2022-08-25T21:07:35.717Z,101401.16
2022-08-25T21:10:05.588Z,101398.63
2022-08-25T21:12:32.182Z,101398.69
2022-08-25T21:14:58.621Z,101395.97
2022-08-25T21:17:25.040Z,101398.44
2022-08-25T21:19:51.786Z,101397.47
2022-08-25T21:22:18.215Z,101392.16
2022-08-25T21:24:45.098Z,101396.13
2022-08-25T21:27:11.574Z,101395.22
2022-08-25T21:29:38.352Z,101398.75
2022-08-25T21:32:11.257Z,101391.53
2022-08-25T21:34:37.820Z,101394.47
2022-08-25T21:37:05.307Z,101392.50
2022-08-25T21:39:33.104Z,101390.00
2022-08-25T21:42:00.390Z,101394.50
2022-08-25T21:44:28.623Z,101389.78
2022-08-25T21:46:55.292Z,101394.31
2022-08-25T21:49:23.283Z,101390.88
2022-08-25T21:51:59.232Z,101385.94
2022-08-25T21:54:27.302Z,101393.13
2022-08-25T21:56:59.413Z,101388.28
2022-08-25T21:59:28.878Z,101388.75
2022-08-25T22:01:57.482Z,101384.78
2022-08-25T22:04:24.813Z,101384.69
2022-08-25T22:06:51.373Z,101384.41
2022-08-25T22:09:17.852Z,101386.88
2022-08-25T22:11:46.119Z,101383.31
2022-08-25T22:14:13.990Z,101388.25
2022-08-25T22:16:41.110Z,101381.53
2022-08-25T22:19:09.291Z,101378.88
2022-08-25T22:21:37.099Z,101382.09
2022-08-25T22:24:05.439Z,101379.16
2022-08-25T22:26:32.806Z,101373.25
2022-08-25T22:28:59.614Z,101368.75
2022-08-25T22:31:27.603Z,101362.78
2022-08-25T22:33:55.446Z,101360.91
2022-08-25T22:36:30.801Z,101367.66
2022-08-25T22:38:57.711Z,101353.78
2022-08-25T22:41:26.923Z,101357.81
2022-08-25T22:43:55.519Z,101361.28
2022-08-25T22:46:23.151Z,101358.41
2022-08-25T22:48:50.337Z,101359.94
2022-08-25T22:51:20.977Z,101352.50
2022-08-25T22:53:49.063Z,101362.22
2022-08-25T22:56:17.452Z,101355.81
2022-08-25T22:58:44.201Z,101354.31
2022-08-25T23:01:20.133Z,101356.50
2022-08-25T23:03:47.674Z,101360.03
2022-08-25T23:06:24.467Z,101360.81
2022-08-25T23:08:53.462Z,101357.31
2022-08-25T23:11:21.389Z,101354.38
2022-08-25T23:13:48.161Z,101353.41
2022-08-25T23:16:15.497Z,101346.00
2022-08-25T23:18:43.948Z,101343.56
2022-08-25T23:21:29.788Z,101340.59
2022-08-25T23:24:01.728Z,101334.66
2022-08-25T23:26:28.722Z,101338.38
2022-08-25T23:28:55.621Z,101342.41
2022-08-25T23:31:22.112Z,101338.19
2022-08-25T23:33:50.813Z,101338.69
2022-08-25T23:36:20.596Z,101332.50
2022-08-25T23:38:51.785Z,101337.19
2022-08-25T23:41:21.622Z,101330.78
2022-08-25T23:43:49.281Z,101328.03
2022-08-25T23:46:17.164Z,101328.28
2022-08-25T23:48:43.963Z,101325.56
2022-08-25T23:51:10.897Z,101321.13
2022-08-25T23:53:37.614Z,101328.81
2022-08-25T23:56:05.558Z,101325.56
2022-08-25T23:58:32.481Z,101328.03
